Time;durP1;ratioP1;P1;durP2;ratioP2;P2;SDS_P1;SDS_P2;PMS_P1;PMS_P2;Temp;Humidity;BMP_temperature;BMP_pressure;BME280_temperature;BME280_humidity;BME280_pressure;Samples;Min_cycle;Max_cycle;Signal;HPM_P1;HPM_P2
2021/10/08 00:01:04;;;;;;;2.50;1.60;;;;;;;11.17;81.31;95079.63;2163552;54;20034;-63
2021/10/08 00:03:06;;;;;;;2.03;1.48;;;;;;;11.12;81.22;95075.81;2163108;54;20042;-62
2021/10/08 00:05:09;;;;;;;4.60;1.77;;;;;;;11.14;80.89;95071.25;2162714;54;20031;-62
2021/10/08 00:07:11;;;;;;;2.60;2.05;;;;;;;11.15;81.48;95065.03;2163527;54;20037;-64
2021/10/08 00:09:12;;;;;;;2.40;1.70;;;;;;;11.22;81.14;95063.44;2163542;47;20038;-63
2021/10/08 00:11:15;;;;;;;2.63;1.67;;;;;;;11.23;81.31;95073.78;2163717;39;20530;-61
2021/10/08 00:13:17;;;;;;;4.60;1.70;;;;;;;11.22;81.26;95073.94;2163554;47;20525;-62
2021/10/08 00:15:19;;;;;;;2.60;1.50;;;;;;;11.21;80.85;95073.13;2163971;39;20456;-62
2021/10/08 00:17:21;;;;;;;2.38;1.60;;;;;;;11.25;80.85;95076.25;2163004;54;20069;-61
2021/10/08 00:19:23;;;;;;;3.10;1.65;;;;;;;11.22;80.91;95072.13;2162819;47;20031;-63
2021/10/08 00:21:25;;;;;;;2.58;1.65;;;;;;;11.21;80.95;95075.72;2163317;47;20039;-62
2021/10/08 00:23:27;;;;;;;5.43;1.88;;;;;;;11.25;81.06;95071.84;2163850;47;20066;-61
2021/10/08 00:25:28;;;;;;;2.85;1.55;;;;;;;11.28;80.40;95071.50;2164388;46;20643;-62
2021/10/08 00:27:30;;;;;;;2.65;1.38;;;;;;;11.25;80.46;95071.00;2163918;54;20034;-61
2021/10/08 00:29:32;;;;;;;1.95;1.35;;;;;;;11.27;80.40;95074.28;2163939;54;20076;-62
2021/10/08 00:31:34;;;;;;;3.05;2.15;;;;;;;11.31;80.12;95070.38;2163558;54;20526;-62
2021/10/08 00:33:36;;;;;;;1.98;1.38;;;;;;;11.27;80.02;95069.03;2163533;54;20627;-61
2021/10/08 00:35:38;;;;;;;2.03;1.35;;;;;;;11.23;80.13;95067.72;2163563;54;20030;-63
2021/10/08 00:37:39;;;;;;;2.65;1.55;;;;;;;11.21;80.57;95067.06;2163333;54;20030;-63
2021/10/08 00:39:41;;;;;;;2.33;1.38;;;;;;;11.19;80.50;95064.56;2163451;47;20034;-63
2021/10/08 00:41:44;;;;;;;1.73;1.30;;;;;;;11.17;80.47;95057.84;2163557;39;20257;-63
2021/10/08 00:43:46;;;;;;;1.70;1.05;;;;;;;11.17;80.38;95055.22;2163121;54;20042;-61
2021/10/08 00:45:49;;;;;;;2.15;1.52;;;;;;;11.13;80.66;95056.50;2163327;46;20054;-63
2021/10/08 00:48:09;;;;;;;3.63;1.50;;;;;;;11.04;80.69;95058.25;2162748;54;20031;-62
2021/10/08 00:50:11;;;;;;;1.90;1.25;;;;;;;10.97;81.06;95055.41;2163340;54;20034;-61
2021/10/08 00:52:13;;;;;;;2.17;1.42;;;;;;;10.95;81.41;95059.13;2162879;54;20581;-62
2021/10/08 00:54:15;;;;;;;2.85;1.40;;;;;;;10.97;81.67;95058.03;2162673;47;20165;-62
2021/10/08 00:56:17;;;;;;;1.80;1.33;;;;;;;10.92;81.79;95052.41;2163417;47;20580;-63
2021/10/08 00:58:21;;;;;;;2.10;1.30;;;;;;;10.92;81.92;95052.41;2163260;54;20031;-64
2021/10/08 01:00:23;;;;;;;1.80;1.40;;;;;;;10.93;82.18;95051.44;2163413;47;20040;-62
2021/10/08 01:02:25;;;;;;;1.60;1.10;;;;;;;10.87;82.34;95062.53;2162775;54;20574;-63
2021/10/08 01:04:28;;;;;;;1.77;1.20;;;;;;;10.88;82.21;95056.31;2163507;46;20605;-66
2021/10/08 01:06:29;;;;;;;2.97;1.60;;;;;;;10.94;82.16;95052.25;2163917;47;20030;-63
2021/10/08 01:08:31;;;;;;;2.65;2.00;;;;;;;10.99;82.16;95050.84;2163701;47;20034;-63
2021/10/08 01:10:34;;;;;;;2.60;1.65;;;;;;;10.94;82.23;95049.66;2163367;54;20081;-62
2021/10/08 01:12:38;;;;;;;2.78;1.90;;;;;;;10.97;82.51;95044.09;2163352;46;20092;-61
2021/10/08 01:14:40;;;;;;;3.35;1.70;;;;;;;10.97;82.24;95036.22;2163588;39;20673;-61
2021/10/08 01:16:42;;;;;;;1.77;1.33;;;;;;;10.99;82.02;95031.66;2162681;54;20077;-62
2021/10/08 01:18:46;;;;;;;1.73;1.30;;;;;;;10.99;82.03;95042.13;2163235;54;20532;-61
2021/10/08 01:20:48;;;;;;;2.15;1.38;;;;;;;10.96;82.41;95039.81;2162938;54;20052;-61
2021/10/08 01:22:53;;;;;;;2.30;1.60;;;;;;;10.96;82.20;95055.56;2163448;47;20142;-63
2021/10/08 01:24:55;;;;;;;2.25;1.63;;;;;;;10.97;82.10;95058.03;2163434;47;20045;-61
2021/10/08 01:26:57;;;;;;;3.55;1.85;;;;;;;10.95;82.54;95067.00;2163199;47;20530;-62
2021/10/08 01:28:58;;;;;;;2.50;1.77;;;;;;;10.91;82.85;95060.44;2163306;47;20514;-63
2021/10/08 01:31:01;;;;;;;2.75;2.10;;;;;;;10.90;82.57;95062.22;2163053;54;20089;-62
2021/10/08 01:33:04;;;;;;;6.10;4.03;;;;;;;10.91;82.55;95063.06;2160745;47;20625;-62
2021/10/08 01:35:06;;;;;;;5.80;4.20;;;;;;;10.85;82.48;95054.00;2162783;54;20080;-64
2021/10/08 01:37:08;;;;;;;5.18;4.43;;;;;;;10.86;82.62;95056.47;2163480;47;20155;-63
2021/10/08 01:39:10;;;;;;;6.13;5.38;;;;;;;10.80;82.57;95051.03;2163432;54;20031;-61
2021/10/08 01:41:12;;;;;;;5.03;4.18;;;;;;;10.73;83.27;95040.28;2163216;54;20047;-62
2021/10/08 01:43:13;;;;;;;3.40;2.90;;;;;;;10.69;83.31;95028.50;2162968;54;20042;-61
2021/10/08 01:45:15;;;;;;;5.53;2.50;;;;;;;10.67;83.63;95033.06;2163183;47;20030;-61
2021/10/08 01:47:17;;;;;;;5.43;3.42;;;;;;;10.76;83.52;95036.56;2162198;54;20118;-60
2021/10/08 01:49:19;;;;;;;3.20;2.38;;;;;;;10.77;83.07;95040.81;2163032;54;20031;-61
2021/10/08 01:51:21;;;;;;;3.97;2.40;;;;;;;10.85;83.01;95041.72;2163414;47;20088;-62
2021/10/08 01:53:23;;;;;;;2.92;2.28;;;;;;;10.80;82.85;95033.50;2163771;39;20433;-63
2021/10/08 01:55:24;;;;;;;2.83;2.28;;;;;;;10.82;82.69;95038.59;2163338;47;20084;-61
2021/10/08 01:57:27;;;;;;;3.65;2.38;;;;;;;10.77;83.00;95032.97;2163079;31;20519;-62
2021/10/08 01:59:29;;;;;;;3.55;2.90;;;;;;;10.71;83.35;95031.78;2163281;54;20057;-62
2021/10/08 02:01:31;;;;;;;4.50;2.42;;;;;;;10.76;83.60;95040.00;2162412;47;20581;-61
2021/10/08 02:03:33;;;;;;;2.83;2.20;;;;;;;10.77;83.94;95048.69;2162780;54;20545;-62
2021/10/08 02:05:35;;;;;;;3.28;2.60;;;;;;;10.76;83.45;95039.19;2163166;47;20030;-62
2021/10/08 02:07:37;;;;;;;4.60;2.58;;;;;;;10.81;83.12;95032.50;2163287;47;20683;-62
2021/10/08 02:09:39;;;;;;;4.22;3.00;;;;;;;10.86;82.93;95037.28;2163164;47;20038;-61
2021/10/08 02:11:41;;;;;;;4.28;3.20;;;;;;;10.75;82.80;95045.41;2162986;54;20034;-62
2021/10/08 02:13:42;;;;;;;4.75;2.70;;;;;;;10.76;82.88;95053.13;2163083;54;20073;-62
2021/10/08 02:15:47;;;;;;;3.42;3.13;;;;;;;10.75;82.81;95048.03;2163014;54;20034;-62
2021/10/08 02:17:49;;;;;;;4.40;3.45;;;;;;;10.73;83.00;95042.91;2162505;54;20037;-61
2021/10/08 02:19:51;;;;;;;6.65;3.95;;;;;;;10.68;83.91;95044.38;2162943;47;20125;-61
2021/10/08 02:21:52;;;;;;;6.93;5.07;;;;;;;10.73;83.50;95042.09;2163031;47;20065;-63
2021/10/08 02:23:54;;;;;;;5.00;4.50;;;;;;;10.75;83.18;95027.88;2163397;39;20323;-61
2021/10/08 02:25:56;;;;;;;4.80;4.03;;;;;;;10.70;83.21;95031.94;2162968;54;20149;-62
2021/10/08 02:27:58;;;;;;;6.00;4.15;;;;;;;10.69;83.38;95031.13;2163022;47;20049;-62
2021/10/08 02:30:00;;;;;;;6.53;3.72;;;;;;;10.74;83.13;95028.84;2163043;54;20034;-62
2021/10/08 02:32:02;;;;;;;5.38;3.90;;;;;;;10.72;83.25;95020.31;2162558;54;20035;-62
2021/10/08 02:34:05;;;;;;;4.57;3.90;;;;;;;10.72;83.24;95022.13;2162466;54;20153;-62
2021/10/08 02:36:07;;;;;;;5.03;3.42;;;;;;;10.76;82.95;95019.06;2163112;54;20034;-61
2021/10/08 02:38:09;;;;;;;6.10;4.40;;;;;;;10.79;82.98;95031.03;2163050;54;20574;-62
2021/10/08 02:40:11;;;;;;;5.78;4.05;;;;;;;10.81;82.84;95029.88;2163018;54;20031;-61
2021/10/08 02:42:13;;;;;;;22.98;13.30;;;;;;;10.77;83.18;95027.72;2162923;47;20392;-62
2021/10/08 02:44:15;;;;;;;8.43;6.40;;;;;;;10.79;83.00;95023.16;2162741;54;20046;-61
2021/10/08 02:46:17;;;;;;;8.35;5.45;;;;;;;10.72;82.93;95032.63;2163075;54;20655;-62
2021/10/08 02:48:19;;;;;;;6.15;5.05;;;;;;;10.72;83.58;95019.50;2162253;54;20606;-63
2021/10/08 02:50:21;;;;;;;7.90;5.38;;;;;;;10.68;83.78;95023.41;2163152;54;20034;-61
2021/10/08 02:52:22;;;;;;;7.40;5.78;;;;;;;10.68;83.63;95018.97;2163302;39;20312;-62
2021/10/08 02:54:37;;;;;;;7.93;5.45;;;;;;;10.75;83.34;95024.44;2163396;54;20030;-62
2021/10/08 02:56:39;;;;;;;8.32;5.40;;;;;;;10.73;83.29;95018.53;2162989;54;20267;-61
2021/10/08 02:58:41;;;;;;;6.57;5.15;;;;;;;10.72;83.32;95017.69;2162931;54;20054;-62
2021/10/08 03:00:43;;;;;;;6.28;5.03;;;;;;;10.76;83.16;95018.22;2162995;47;20038;-62
2021/10/08 03:02:45;;;;;;;7.20;5.50;;;;;;;10.76;83.06;95023.47;2162329;47;20022;-62
2021/10/08 03:04:47;;;;;;;9.00;5.30;;;;;;;10.77;82.91;95027.72;2163210;39;20173;-63
2021/10/08 03:06:49;;;;;;;10.07;5.55;;;;;;;10.83;83.22;95030.56;2162275;47;20635;-63
2021/10/08 03:08:53;;;;;;;6.95;4.85;;;;;;;10.85;82.61;95030.41;2163355;47;20034;-63
2021/10/08 03:10:54;;;;;;;7.15;4.95;;;;;;;10.86;82.63;95034.66;2164439;39;20469;-61
2021/10/08 03:12:56;;;;;;;5.70;4.63;;;;;;;10.80;82.33;95025.63;2163840;54;20586;-63
2021/10/08 03:14:58;;;;;;;6.95;4.90;;;;;;;10.75;82.03;95022.63;2163983;54;20030;-61
2021/10/08 03:17:00;;;;;;;6.32;3.83;;;;;;;10.74;82.35;95033.28;2162603;46;20673;-62
2021/10/08 03:19:16;;;;;;;6.80;4.43;;;;;;;10.65;82.46;95033.22;2163507;54;20061;-63
2021/10/08 03:21:17;;;;;;;6.35;4.22;;;;;;;10.55;82.89;95037.69;2164287;31;20547;-64
2021/10/08 03:23:19;;;;;;;4.82;3.90;;;;;;;10.57;83.31;95032.31;2163775;39;20290;-61
2021/10/08 03:25:21;;;;;;;6.63;4.60;;;;;;;10.65;83.23;95027.16;2163647;47;20082;-62
2021/10/08 03:27:23;;;;;;;7.30;4.47;;;;;;;10.63;83.17;95023.88;2163410;54;20034;-62
2021/10/08 03:29:25;;;;;;;7.03;4.38;;;;;;;10.64;83.30;95022.88;2163641;54;20229;-62
2021/10/08 03:31:28;;;;;;;6.13;4.70;;;;;;;10.63;83.17;95022.06;2163344;47;20173;-62
2021/10/08 03:33:30;;;;;;;7.05;4.53;;;;;;;10.59;83.10;95025.13;2163527;39;20253;-63
2021/10/08 03:35:32;;;;;;;6.50;4.22;;;;;;;10.62;83.24;95028.25;2164151;39;20524;-62
2021/10/08 03:38:03;;;;;;;5.45;4.18;;;;;;;10.59;83.11;95033.00;2163590;39;20127;-60
2021/10/08 03:39:56;;;;;;;6.95;4.40;;;;;;;10.60;83.51;95024.16;2163808;31;20556;-65
2021/10/08 03:41:58;;;;;;;4.57;3.88;;;;;;;10.54;83.63;95029.97;2163191;47;20081;-62
2021/10/08 03:44:02;;;;;;;6.50;3.97;;;;;;;10.50;83.76;95015.56;2163563;54;20030;-62
2021/10/08 03:46:08;;;;;;;4.68;3.90;;;;;;;10.45;84.25;95010.75;2163563;54;20691;-62
2021/10/08 03:50:23;;;;;;;3.75;2.97;;;;;;;10.47;84.03;95021.91;2163571;47;20066;-62
2021/10/08 03:52:27;;;;;;;5.78;3.22;;;;;;;10.49;84.08;95022.59;2163669;54;20137;-63
2021/10/08 03:54:29;;;;;;;5.25;3.10;;;;;;;10.57;83.99;95019.22;2164187;39;20490;-62
2021/10/08 03:56:31;;;;;;;5.05;3.33;;;;;;;10.65;84.19;95027.97;2163297;54;20077;-64
2021/10/08 03:58:33;;;;;;;4.18;2.80;;;;;;;10.69;83.56;95035.50;2163600;47;20565;-62
2021/10/08 04:00:35;;;;;;;4.35;2.83;;;;;;;10.63;83.50;95023.88;2163725;47;20035;-63
2021/10/08 04:02:37;;;;;;;3.65;2.22;;;;;;;10.55;84.10;95037.69;2163050;47;20122;-62
2021/10/08 04:04:39;;;;;;;3.63;2.75;;;;;;;10.60;83.96;95032.84;2162870;54;20034;-62
2021/10/08 04:06:41;;;;;;;3.92;2.30;;;;;;;10.54;83.83;95032.59;2163782;54;20134;-62
2021/10/08 04:08:44;;;;;;;3.22;2.15;;;;;;;10.60;84.05;95032.84;2163876;47;20356;-61
2021/10/08 04:10:45;;;;;;;3.40;2.58;;;;;;;10.67;83.97;95040.94;2163544;54;20569;-63
2021/10/08 04:12:47;;;;;;;4.35;2.30;;;;;;;10.75;83.67;95040.97;2163945;39;20454;-64
2021/10/08 04:14:49;;;;;;;2.92;2.00;;;;;;;10.65;83.45;95041.06;2163457;54;20034;-62
2021/10/08 04:16:51;;;;;;;6.97;2.38;;;;;;;10.64;83.92;95041.22;2162691;47;20588;-62
2021/10/08 04:18:52;;;;;;;3.65;2.22;;;;;;;10.70;84.12;95042.41;2163323;54;20073;-62
2021/10/08 04:20:54;;;;;;;5.35;1.92;;;;;;;10.73;83.47;95039.47;2163555;49;20082;-61
2021/10/08 04:22:56;;;;;;;3.30;1.80;;;;;;;10.81;83.89;95052.66;2164093;46;20137;-62
2021/10/08 04:24:58;;;;;;;2.92;1.75;;;;;;;10.75;83.64;95048.84;2163759;54;20038;-62
2021/10/08 04:27:00;;;;;;;5.05;2.05;;;;;;;10.71;83.96;95036.19;2163671;54;20138;-61
2021/10/08 04:29:02;;;;;;;2.70;1.73;;;;;;;10.70;83.88;95039.78;2164059;39;20770;-62
2021/10/08 04:31:04;;;;;;;3.30;1.67;;;;;;;10.66;83.83;95040.09;2163563;54;20597;-64
2021/10/08 04:33:17;;;;;;;2.53;1.60;;;;;;;10.69;84.04;95038.13;2162891;47;20030;-60
2021/10/08 04:35:19;;;;;;;3.20;1.95;;;;;;;10.62;83.90;95043.97;2162797;54;20074;-62
2021/10/08 04:37:21;;;;;;;4.57;3.00;;;;;;;10.54;83.95;95045.69;2163349;54;20073;-61
2021/10/08 04:39:23;;;;;;;3.90;1.63;;;;;;;10.59;84.64;95052.16;2163133;54;20169;-62
2021/10/08 04:41:24;;;;;;;3.28;1.98;;;;;;;10.58;84.21;95045.28;2163478;54;20537;-63
2021/10/08 04:43:27;;;;;;;2.58;1.95;;;;;;;10.57;84.26;95055.91;2163126;54;20077;-62
2021/10/08 04:45:29;;;;;;;5.22;1.88;;;;;;;10.61;84.42;95046.78;2163564;54;20617;-63
2021/10/08 04:47:31;;;;;;;4.45;2.00;;;;;;;10.63;83.86;95050.06;2163591;31;20443;-65
2021/10/08 04:49:32;;;;;;;3.65;2.10;;;;;;;10.60;83.95;95058.22;2162462;54;20042;-61
2021/10/08 04:51:35;;;;;;;4.30;2.08;;;;;;;10.58;84.43;95055.75;2163453;54;20037;-62
2021/10/08 04:53:38;;;;;;;2.83;2.10;;;;;;;10.54;83.98;95051.78;2163656;39;20466;-62
2021/10/08 04:55:40;;;;;;;3.78;2.50;;;;;;;10.58;84.46;95047.91;2163495;47;20635;-63
2021/10/08 04:57:42;;;;;;;5.10;2.30;;;;;;;10.57;84.21;95046.22;2163732;54;20046;-62
2021/10/08 04:59:43;;;;;;;5.43;2.50;;;;;;;10.56;83.93;95049.00;2163390;54;20073;-65
2021/10/08 05:01:45;;;;;;;6.53;2.33;;;;;;;10.56;84.22;95047.22;2162709;54;20100;-62
2021/10/08 05:03:47;;;;;;;2.90;2.17;;;;;;;10.42;84.25;95045.13;2163098;54;20037;-63
2021/10/08 05:05:51;;;;;;;3.95;2.15;;;;;;;10.43;85.21;95031.88;2163365;54;20680;-63
2021/10/08 05:07:52;;;;;;;2.88;1.85;;;;;;;10.44;84.46;95030.09;2163318;54;20064;-62
2021/10/08 05:09:55;;;;;;;6.47;2.60;;;;;;;10.43;84.80;95023.19;2163116;47;20034;-63
2021/10/08 05:11:56;;;;;;;3.97;2.58;;;;;;;10.43;85.04;95028.41;2163246;47;20034;-61
2021/10/08 05:13:58;;;;;;;6.90;2.72;;;;;;;10.47;84.94;95028.94;2163259;54;20061;-62
2021/10/08 05:16:00;;;;;;;4.68;2.55;;;;;;;10.56;84.80;95028.03;2163134;47;20570;-63
2021/10/08 05:18:02;;;;;;;7.65;3.05;;;;;;;10.61;83.99;95031.06;2162679;47;20080;-64
2021/10/08 05:20:05;;;;;;;6.35;3.38;;;;;;;10.62;83.76;95024.81;2163157;47;20030;-63
2021/10/08 05:22:10;;;;;;;6.35;3.00;;;;;;;10.54;83.75;95043.94;2162510;47;20038;-63
2021/10/08 05:24:12;;;;;;;5.95;3.30;;;;;;;10.52;84.14;95040.63;2163136;54;20089;-63
2021/10/08 05:26:13;;;;;;;5.53;3.28;;;;;;;10.50;84.51;95036.53;2163312;54;20146;-64
2021/10/08 05:28:15;;;;;;;5.07;3.05;;;;;;;10.53;84.61;95036.22;2163243;54;20550;-62
2021/10/08 05:30:17;;;;;;;6.38;3.58;;;;;;;10.51;84.79;95031.13;2163368;47;20046;-62
2021/10/08 05:32:19;;;;;;;5.05;2.70;;;;;;;10.43;84.72;95038.91;2162286;54;20089;-62
2021/10/08 05:34:20;;;;;;;6.65;2.67;;;;;;;10.47;84.59;95047.28;2163046;54;20022;-63
2021/10/08 05:36:22;;;;;;;4.80;2.47;;;;;;;10.46;84.64;95043.84;2163103;54;20031;-63
2021/10/08 05:38:24;;;;;;;4.00;2.72;;;;;;;10.48;84.78;95043.72;2163512;46;20524;-63
2021/10/08 05:40:26;;;;;;;4.43;2.40;;;;;;;10.47;84.64;95048.09;2163319;54;20041;-62
2021/10/08 05:42:28;;;;;;;3.83;2.90;;;;;;;10.49;84.98;95047.97;2163014;47;20102;-64
2021/10/08 05:44:30;;;;;;;5.05;2.65;;;;;;;10.36;85.53;95041.28;2163172;54;20122;-62
2021/10/08 05:46:32;;;;;;;6.18;2.88;;;;;;;10.40;85.20;95047.06;2162834;47;20042;-64
2021/10/08 05:48:34;;;;;;;4.45;2.95;;;;;;;10.43;85.18;95042.34;2162703;54;20030;-64
2021/10/08 05:50:36;;;;;;;5.05;2.60;;;;;;;10.37;85.35;95042.94;2163326;54;20629;-62
2021/10/08 05:52:38;;;;;;;3.83;2.30;;;;;;;10.44;85.57;95048.41;2163305;47;20038;-64
2021/10/08 05:54:41;;;;;;;6.18;2.75;;;;;;;10.45;85.37;95048.28;2163266;54;20137;-62
2021/10/08 05:56:42;;;;;;;4.93;3.22;;;;;;;10.53;85.58;95038.84;2163213;54;20085;-63
2021/10/08 05:58:44;;;;;;;5.38;3.42;;;;;;;10.57;85.04;95033.13;2163272;47;20034;-64
2021/10/08 06:00:46;;;;;;;4.63;2.70;;;;;;;10.57;84.32;95035.75;2163342;54;20618;-65
2021/10/08 06:02:48;;;;;;;6.53;3.03;;;;;;;10.54;84.63;95040.47;2162824;47;20030;-63
2021/10/08 06:04:50;;;;;;;5.13;3.03;;;;;;;10.57;85.01;95040.19;2163180;39;20458;-63
2021/10/08 06:06:52;;;;;;;6.80;3.55;;;;;;;10.55;84.81;95026.41;2162990;54;20034;-62
2021/10/08 06:08:53;;;;;;;4.75;3.03;;;;;;;10.50;84.79;95028.66;2163156;54;20042;-63
2021/10/08 06:10:55;;;;;;;5.95;3.17;;;;;;;10.51;84.94;95028.50;2163006;47;20356;-63
2021/10/08 06:12:57;;;;;;;6.18;2.72;;;;;;;10.52;85.21;95032.78;2163059;47;20093;-61
2021/10/08 06:14:59;;;;;;;4.60;2.63;;;;;;;10.49;84.84;95030.44;2163122;54;20081;-63
2021/10/08 06:17:01;;;;;;;8.52;3.80;;;;;;;10.46;84.80;95033.38;2162600;54;20085;-64
2021/10/08 06:19:03;;;;;;;8.30;5.22;;;;;;;10.48;85.03;95043.72;2163245;39;20494;-63
2021/10/08 06:21:04;;;;;;;7.18;2.80;;;;;;;10.48;84.84;95041.91;2162813;47;20042;-63
2021/10/08 06:23:06;;;;;;;3.55;2.00;;;;;;;10.40;85.08;95042.63;2163664;31;20477;-65
2021/10/08 06:25:09;;;;;;;4.35;2.13;;;;;;;10.49;85.53;95040.09;2163076;54;20145;-64
2021/10/08 06:27:11;;;;;;;3.70;2.13;;;;;;;10.48;84.82;95034.03;2162964;54;20424;-63
2021/10/08 06:29:13;;;;;;;3.70;2.10;;;;;;;10.56;85.02;95041.97;2163007;54;20558;-64
2021/10/08 06:31:15;;;;;;;7.40;2.90;;;;;;;10.56;84.68;95041.97;2163022;54;20755;-64
2021/10/08 06:33:17;;;;;;;5.35;2.33;;;;;;;10.52;84.73;95040.63;2162292;54;20150;-65
2021/10/08 06:35:18;;;;;;;6.55;2.60;;;;;;;10.62;84.88;95048.41;2163013;46;20054;-64
2021/10/08 06:37:20;;;;;;;4.53;2.50;;;;;;;10.65;84.74;95046.31;2162863;54;20039;-64
2021/10/08 06:39:22;;;;;;;5.53;2.97;;;;;;;10.64;84.40;95046.44;2162554;46;20049;-61
2021/10/08 06:41:24;;;;;;;5.78;2.67;;;;;;;10.70;84.15;95047.66;2163012;54;20031;-63
2021/10/08 06:43:25;;;;;;;2.90;2.20;;;;;;;10.67;84.00;95048.78;2162787;54;20038;-65
2021/10/08 06:45:28;;;;;;;2.88;1.95;;;;;;;10.69;83.89;95056.47;2163018;54;20031;-65
2021/10/08 06:47:30;;;;;;;4.68;2.13;;;;;;;10.73;84.22;95052.59;2163117;47;20061;-64
2021/10/08 06:49:33;;;;;;;5.50;2.05;;;;;;;10.80;83.81;95051.03;2163297;47;20034;-62
2021/10/08 06:51:35;;;;;;;4.30;1.80;;;;;;;10.72;83.80;95064.06;2163692;54;20030;-63
2021/10/08 06:53:37;;;;;;;3.00;1.95;;;;;;;10.70;84.05;95056.34;2163538;47;20085;-64
2021/10/08 06:55:39;;;;;;;2.92;1.75;;;;;;;10.69;84.26;95057.31;2163724;47;20038;-63
2021/10/08 06:57:40;;;;;;;4.93;2.50;;;;;;;10.68;84.25;95060.09;2163473;54;20038;-63
2021/10/08 06:59:42;;;;;;;5.35;2.42;;;;;;;10.71;84.42;95059.78;2163414;54;20035;-62
2021/10/08 07:01:44;;;;;;;2.35;1.50;;;;;;;10.61;84.69;95065.91;2163023;54;20637;-66
2021/10/08 07:03:46;;;;;;;4.18;1.92;;;;;;;10.59;84.76;95065.25;2163063;54;20031;-65
2021/10/08 07:05:48;;;;;;;3.30;2.17;;;;;;;10.56;84.70;95060.31;2163562;54;20273;-63
2021/10/08 07:07:50;;;;;;;3.65;1.80;;;;;;;10.58;85.09;95057.53;2163641;54;20084;-64
2021/10/08 07:09:52;;;;;;;3.78;1.52;;;;;;;10.65;84.89;95067.28;2163556;54;20035;-63
2021/10/08 07:11:54;;;;;;;4.32;1.80;;;;;;;10.64;85.15;95065.59;2163354;54;20121;-62
2021/10/08 07:13:55;;;;;;;3.58;1.80;;;;;;;10.64;84.71;95067.41;2163775;31;20475;-63
2021/10/08 07:15:59;;;;;;;4.78;1.95;;;;;;;10.68;84.78;95067.94;2163417;54;20038;-62
2021/10/08 07:18:22;;;;;;;3.58;1.45;;;;;;;10.69;84.56;95069.56;2162743;47;20034;-63
2021/10/08 07:20:26;;;;;;;3.70;1.80;;;;;;;10.77;84.78;95069.66;2163512;54;20085;-64
2021/10/08 07:22:27;;;;;;;2.92;1.63;;;;;;;10.80;84.70;95075.44;2163520;54;20078;-63
2021/10/08 07:24:31;;;;;;;2.83;1.63;;;;;;;10.86;84.43;95089.72;2163504;54;20126;-63
2021/10/08 07:26:33;;;;;;;3.70;1.58;;;;;;;10.87;84.56;95091.38;2163472;47;20042;-64
2021/10/08 07:28:34;;;;;;;2.40;1.50;;;;;;;10.93;84.03;95093.38;2163440;54;20030;-63
2021/10/08 07:30:36;;;;;;;2.55;1.60;;;;;;;11.00;83.54;95097.03;2163545;54;20134;-65
2021/10/08 07:32:38;;;;;;;4.53;2.00;;;;;;;10.97;83.23;95105.22;2162950;47;20053;-63
2021/10/08 07:34:42;;;;;;;3.60;1.85;;;;;;;10.96;83.37;95102.75;2163343;54;20083;-64
2021/10/08 07:36:43;;;;;;;2.65;1.90;;;;;;;10.91;83.36;95111.06;2164018;39;20695;-63
2021/10/08 07:38:45;;;;;;;4.20;2.35;;;;;;;10.87;83.57;95104.47;2163683;51;20081;-62
2021/10/08 07:40:47;;;;;;;3.53;1.95;;;;;;;10.74;83.78;95104.03;2164026;39;20113;-63
2021/10/08 07:42:53;;;;;;;5.57;2.30;;;;;;;10.76;84.24;95110.78;2163507;54;20046;-63
2021/10/08 07:44:55;;;;;;;3.67;1.90;;;;;;;10.79;84.17;95120.13;2163525;54;20076;-63
2021/10/08 07:46:56;;;;;;;4.70;2.15;;;;;;;10.84;83.96;95123.94;2163025;54;20088;-62
2021/10/08 07:48:58;;;;;;;4.05;1.80;;;;;;;10.93;83.80;95126.66;2163458;54;20034;-63
2021/10/08 07:51:00;;;;;;;8.95;3.50;;;;;;;11.01;83.37;95135.41;2164093;39;20090;-64
2021/10/08 07:53:02;;;;;;;2.60;1.90;;;;;;;10.95;83.12;95132.53;2163525;47;20042;-63
2021/10/08 07:55:07;;;;;;;4.13;1.75;;;;;;;10.93;82.77;95140.56;2163252;54;20152;-63
2021/10/08 07:57:09;;;;;;;4.25;1.95;;;;;;;10.96;82.77;95145.50;2162726;54;20039;-63
2021/10/08 07:59:11;;;;;;;2.72;1.60;;;;;;;10.92;82.54;95156.44;2163424;54;20077;-63
2021/10/08 08:01:12;;;;;;;2.75;1.35;;;;;;;10.89;83.08;95154.94;2163474;54;20046;-64
2021/10/08 08:03:14;;;;;;;3.92;2.00;;;;;;;10.78;82.75;95157.78;2162547;54;20035;-63
2021/10/08 08:05:16;;;;;;;2.60;1.67;;;;;;;10.72;83.60;95163.63;2162878;54;20137;-64
2021/10/08 08:07:18;;;;;;;2.67;1.70;;;;;;;10.71;84.06;95159.34;2163192;46;20030;-63
2021/10/08 08:09:20;;;;;;;4.25;1.65;;;;;;;10.78;84.01;95170.91;2163538;46;20687;-62
2021/10/08 08:11:21;;;;;;;2.65;1.67;;;;;;;10.78;83.74;95163.03;2163381;31;20522;-64
2021/10/08 08:13:23;;;;;;;2.35;1.60;;;;;;;10.80;83.58;95171.56;2163186;54;20166;-63
2021/10/08 08:15:25;;;;;;;3.63;2.08;;;;;;;10.81;83.36;95173.22;2163358;47;20586;-63
2021/10/08 08:17:27;;;;;;;3.88;1.85;;;;;;;10.89;82.89;95172.47;2162705;46;20141;-62
2021/10/08 08:19:29;;;;;;;3.05;2.00;;;;;;;10.77;82.91;95166.63;2162674;46;20092;-63
2021/10/08 08:21:30;;;;;;;3.85;1.90;;;;;;;10.69;83.36;95156.91;2162561;47;20197;-64
2021/10/08 08:23:32;;;;;;;4.03;1.95;;;;;;;10.62;83.50;95164.50;2163411;47;20038;-62
2021/10/08 08:25:34;;;;;;;4.32;1.95;;;;;;;10.60;83.83;95169.09;2163428;54;20034;-61
2021/10/08 08:27:36;;;;;;;3.88;2.33;;;;;;;10.61;83.80;95165.47;2164019;31;20604;-63
2021/10/08 08:29:38;;;;;;;4.50;2.25;;;;;;;10.61;84.16;95183.00;2163307;54;20034;-63
2021/10/08 08:31:41;;;;;;;6.10;2.30;;;;;;;10.66;84.08;95178.94;2162542;54;20030;-63
2021/10/08 08:33:43;;;;;;;3.78;2.03;;;;;;;10.71;82.89;95181.16;2163106;54;20030;-62
2021/10/08 08:35:44;;;;;;;6.43;1.92;;;;;;;10.77;83.37;95182.34;2163910;39;20482;-62
2021/10/08 08:37:46;;;;;;;3.50;1.77;;;;;;;10.85;83.53;95182.44;2163295;54;20118;-63
2021/10/08 08:39:48;;;;;;;3.80;2.10;;;;;;;10.94;83.12;95194.63;2163409;46;20046;-64
2021/10/08 08:41:51;;;;;;;4.45;1.77;;;;;;;10.98;82.24;95198.59;2163181;47;20571;-64
2021/10/08 08:43:52;;;;;;;9.35;3.53;;;;;;;11.03;82.30;95203.41;2163087;46;20138;-65
2021/10/08 08:45:58;;;;;;;8.20;4.22;;;;;;;11.06;81.90;95206.56;2163492;39;20519;-64
2021/10/08 08:48:10;;;;;;;4.68;2.72;;;;;;;10.85;81.41;95208.63;2162816;46;20046;-62
2021/10/08 08:50:15;;;;;;;10.55;4.43;;;;;;;10.86;82.12;95208.50;2163228;54;20081;-64
2021/10/08 08:52:17;;;;;;;7.40;3.45;;;;;;;10.86;82.16;95205.88;2163375;54;20035;-66
2021/10/08 08:54:19;;;;;;;16.08;8.60;;;;;;;10.90;82.56;95209.00;2163356;54;20031;-62
2021/10/08 08:56:21;;;;;;;5.30;2.60;;;;;;;10.93;81.87;95200.03;2163329;47;20126;-63
2021/10/08 08:58:23;;;;;;;5.97;3.00;;;;;;;10.87;81.08;95209.31;2163327;39;20438;-63
2021/10/08 09:00:26;;;;;;;15.45;7.72;;;;;;;10.79;82.05;95202.19;2163242;47;20602;-63
2021/10/08 09:02:29;;;;;;;36.83;17.80;;;;;;;10.84;82.49;95194.72;2163042;39;20469;-65
2021/10/08 09:04:32;;;;;;;6.43;3.50;;;;;;;10.85;81.93;95187.66;2163109;47;20038;-64
2021/10/08 09:06:36;;;;;;;9.25;4.20;;;;;;;10.81;81.72;95181.06;2162740;54;20038;-64
2021/10/08 09:08:44;;;;;;;14.25;6.25;;;;;;;10.78;82.19;95179.59;2163144;54;20080;-64
2021/10/08 09:10:47;;;;;;;10.23;3.88;;;;;;;10.78;82.09;95165.66;2163778;39;20319;-63
2021/10/08 09:12:53;;;;;;;10.25;4.72;;;;;;;10.80;81.77;95166.34;2163974;31;20501;-64
2021/10/08 09:14:58;;;;;;;10.38;5.40;;;;;;;10.80;81.81;95161.91;2163428;39;20450;-63
2021/10/08 09:17:08;;;;;;;5.40;3.20;;;;;;;10.87;82.05;95156.91;2162666;54;20076;-63
2021/10/08 09:19:09;;;;;;;4.07;2.30;;;;;;;10.91;81.89;95158.25;2162621;54;20036;-62
2021/10/08 09:21:16;;;;;;;3.63;1.90;;;;;;;10.80;81.29;95159.28;2163289;54;20030;-63
2021/10/08 09:23:18;;;;;;;6.35;1.98;;;;;;;10.75;82.10;95158.91;2163175;54;20034;-64
2021/10/08 09:25:23;;;;;;;5.32;2.05;;;;;;;10.81;82.44;95166.16;2162463;50;20035;-65
2021/10/08 09:27:24;;;;;;;5.50;2.42;;;;;;;10.91;82.58;95162.66;2163193;54;20650;-63
2021/10/08 09:29:28;;;;;;;5.18;2.47;;;;;;;10.94;82.23;95160.56;2163123;47;20042;-64
2021/10/08 09:31:36;;;;;;;4.35;2.65;;;;;;;10.94;82.01;95163.19;2162321;54;20083;-66
2021/10/08 09:33:38;;;;;;;6.28;2.08;;;;;;;11.06;81.93;95174.28;2162953;47;20110;-63
2021/10/08 09:35:41;;;;;;;3.63;1.50;;;;;;;11.09;81.43;95175.75;2163374;54;20569;-65
2021/10/08 09:37:45;;;;;;;3.50;1.60;;;;;;;10.93;80.93;95172.03;2163273;47;20030;-64
2021/10/08 09:39:50;;;;;;;3.45;1.40;;;;;;;10.85;81.40;95174.56;2163482;39;20538;-64